PWSweather.com
Personal Weather Stations
Station Observations
KNHHOOKS9
Hooksett Pinnacle Peak, Hooksett, NH 03106

Hooksett Pinnacle PeakHooksett, NH 03106

Lat: 43.0954576, Lon: -71.46843790000003

Elevation: 298

Station Type: David VP2

Latest ConditionsUpdated 10:10:15 PM EDT Monday, Mar 27, 2017
Currently Today's Max Today's Min Today's Average
Temperature 34.1°F1.2°C 38.0°F3.3°C 30.9°F-0.6°C 33.9°F1.1°C
Dew Point 33.1°F0.6°C 37.2°F2.9°C 28.7°F-1.8°C 32.7°F0.4°C
Winds Calm Calm 4.0 mph NNE6.4 kmh NNE - 0.8 mph 1.3 kmh
Wind Gusts -- 4.0 mph6.4 kmh - -
Humidity 96% 97% 91% 95%
Pressure 30.05 in1017.6 mb 30.41 in1029.8 mb 30.03 in1016.9 mb -
Hour Temp Dew Point Humidity Winds Wind Gusts Pressure Precip Precip Rate Daily Precip Total
10:10 PM 34.1°F1.2°C 33.1°F0.6°C 96% Calm Calm -- 30.05 in1017.6 mb 0.00 in0.0 mm 0.00 in0.0 mm 0.25 in6.4 mm
10:00 PM 34.1°F1.2°C 33.1°F0.6°C 96% Calm Calm -- 30.05 in1017.6 mb 0.00 in0.0 mm 0.00 in0.0 mm 0.25 in6.4 mm
09:50 PM 34.2°F1.2°C 33.2°F0.7°C 96% Calm Calm -- 30.05 in1017.6 mb 0.00 in0.0 mm 0.00 in0.0 mm 0.25 in6.4 mm
09:40 PM 34.3°F1.3°C 33.3°F0.7°C 96% 1.0 mph NNE1.6 kmh NNE 2.0 mph3.2 kmh 30.05 in1017.6 mb 0.00 in0.0 mm 0.00 in0.0 mm 0.25 in6.4 mm
09:30 PM 34.3°F1.3°C 33.3°F0.7°C 96% Calm Calm -- 30.06 in1017.9 mb 0.00 in0.0 mm 0.00 in0.0 mm 0.25 in6.4 mm
09:20 PM 34.3°F1.3°C 33.3°F0.7°C 96% Calm Calm -- 30.06 in1017.9 mb 0.00 in0.0 mm 0.00 in0.0 mm 0.25 in6.4 mm
09:10 PM 34.5°F1.4°C 33.5°F0.8°C 96% Calm Calm -- 30.06 in1017.9 mb 0.00 in0.0 mm 0.00 in0.0 mm 0.25 in6.4 mm
09:00 PM 34.5°F1.4°C 33.5°F0.8°C 96% Calm Calm 1.0 mph1.6 kmh 30.05 in1017.6 mb 0.00 in0.0 mm 0.00 in0.0 mm 0.25 in6.4 mm
08:50 PM 34.6°F1.4°C 33.6°F0.9°C 96% Calm Calm 1.0 mph1.6 kmh 30.06 in1017.9 mb 0.00 in0.0 mm 0.00 in0.0 mm 0.25 in6.4 mm
08:40 PM 34.7°F1.5°C 33.7°F0.9°C 96% Calm Calm 2.0 mph3.2 kmh 30.06 in1017.9 mb 0.00 in0.0 mm 0.00 in0.0 mm 0.25 in6.4 mm
08:30 PM 34.7°F1.5°C 33.7°F0.9°C 96% Calm Calm 1.0 mph1.6 kmh 30.05 in1017.6 mb 0.00 in0.0 mm 0.00 in0.0 mm 0.25 in6.4 mm
08:20 PM 34.8°F1.6°C 33.8°F1.0°C 96% 2.0 mph NNE3.2 kmh NNE 3.0 mph4.8 kmh 30.05 in1017.6 mb 0.00 in0.0 mm 0.00 in0.0 mm 0.25 in6.4 mm
08:10 PM 34.9°F1.6°C 33.9°F1.1°C 96% 2.0 mph NNE3.2 kmh NNE 3.0 mph4.8 kmh 30.04 in1017.3 mb 0.00 in0.0 mm 0.00 in0.0 mm 0.25 in6.4 mm
08:00 PM 35.0°F1.7°C 34.0°F1.1°C 96% 1.0 mph NNE1.6 kmh NNE 1.0 mph1.6 kmh 30.04 in1017.3 mb 0.00 in0.0 mm 0.00 in0.0 mm 0.25 in6.4 mm
07:50 PM 35.1°F1.7°C 34.1°F1.2°C 96% Calm Calm 2.0 mph3.2 kmh 30.05 in1017.6 mb 0.00 in0.0 mm 0.00 in0.0 mm 0.25 in6.4 mm
07:40 PM 35.2°F1.8°C 34.2°F1.2°C 96% Calm Calm 3.0 mph4.8 kmh 30.04 in1017.3 mb 0.00 in0.0 mm 0.00 in0.0 mm 0.25 in6.4 mm
07:30 PM 35.4°F1.9°C 34.4°F1.3°C 96% 2.0 mph NNE3.2 kmh NNE 3.0 mph4.8 kmh 30.04 in1017.3 mb 0.00 in0.0 mm 0.00 in0.0 mm 0.25 in6.4 mm
07:20 PM 35.6°F2.0°C 34.6°F1.4°C 96% 2.0 mph NNE3.2 kmh NNE 3.0 mph4.8 kmh 30.04 in1017.3 mb 0.00 in0.0 mm 0.00 in0.0 mm 0.25 in6.4 mm
07:10 PM 35.9°F2.2°C 34.9°F1.6°C 96% 2.0 mph NNE3.2 kmh NNE 3.0 mph4.8 kmh 30.04 in1017.3 mb 0.00 in0.0 mm 0.00 in0.0 mm 0.25 in6.4 mm
07:00 PM 36.1°F2.3°C 35.1°F1.7°C 96% 1.0 mph NNE1.6 kmh NNE 2.0 mph3.2 kmh 30.04 in1017.3 mb 0.00 in0.0 mm 0.00 in0.0 mm 0.25 in6.4 mm
06:50 PM 36.2°F2.3°C 35.2°F1.8°C 96% 1.0 mph NNE1.6 kmh NNE 2.0 mph3.2 kmh 30.04 in1017.3 mb 0.00 in0.0 mm 0.00 in0.0 mm 0.25 in6.4 mm
06:40 PM 36.3°F2.4°C 35.3°F1.8°C 96% 2.0 mph NNE3.2 kmh NNE 2.0 mph3.2 kmh 30.04 in1017.3 mb 0.00 in0.0 mm 0.00 in0.0 mm 0.25 in6.4 mm
06:30 PM 36.4°F2.4°C 35.4°F1.9°C 96% 1.0 mph NNE1.6 kmh NNE 3.0 mph4.8 kmh 30.04 in1017.3 mb 0.00 in0.0 mm 0.00 in0.0 mm 0.25 in6.4 mm
06:20 PM 36.5°F2.5°C 35.5°F1.9°C 96% Calm Calm -- 30.04 in1017.3 mb 0.00 in0.0 mm 0.00 in0.0 mm 0.25 in6.4 mm
06:10 PM 36.6°F2.6°C 35.6°F2.0°C 96% 3.0 mph N4.8 kmh N 4.0 mph6.4 kmh 30.04 in1017.3 mb 0.00 in0.0 mm 0.00 in0.0 mm 0.25 in6.4 mm
06:00 PM 36.8°F2.7°C 35.8°F2.1°C 96% 1.0 mph N1.6 kmh N 3.0 mph4.8 kmh 30.04 in1017.3 mb 0.00 in0.0 mm 0.00 in0.0 mm 0.25 in6.4 mm
05:50 PM 36.9°F2.7°C 35.9°F2.2°C 96% 3.0 mph N4.8 kmh N 3.0 mph4.8 kmh 30.04 in1017.3 mb 0.00 in0.0 mm 0.00 in0.0 mm 0.25 in6.4 mm
05:40 PM 37.1°F2.8°C 36.1°F2.3°C 96% 1.0 mph N1.6 kmh N 3.0 mph4.8 kmh 30.04 in1017.3 mb 0.00 in0.0 mm 0.00 in0.0 mm 0.25 in6.4 mm
05:30 PM 37.2°F2.9°C 36.2°F2.3°C 96% 1.0 mph N1.6 kmh N 3.0 mph4.8 kmh 30.04 in1017.3 mb 0.00 in0.0 mm 0.00 in0.0 mm 0.25 in6.4 mm
05:20 PM 37.3°F2.9°C 36.3°F2.4°C 96% 3.0 mph N4.8 kmh N 3.0 mph4.8 kmh 30.03 in1016.9 mb 0.00 in0.0 mm 0.00 in0.0 mm 0.25 in6.4 mm
05:10 PM 37.2°F2.9°C 36.4°F2.4°C 97% 3.0 mph N4.8 kmh N 4.0 mph6.4 kmh 30.04 in1017.3 mb 0.00 in0.0 mm 0.00 in0.0 mm 0.25 in6.4 mm
05:00 PM 37.3°F2.9°C 36.3°F2.4°C 96% Calm Calm 1.0 mph1.6 kmh 30.03 in1016.9 mb 0.00 in0.0 mm 0.00 in0.0 mm 0.25 in6.4 mm
04:50 PM 37.4°F3.0°C 36.6°F2.6°C 97% 1.0 mph N1.6 kmh N 2.0 mph3.2 kmh 30.04 in1017.3 mb 0.00 in0.0 mm 0.00 in0.0 mm 0.25 in6.4 mm
04:40 PM 37.5°F3.1°C 36.7°F2.6°C 97% 4.0 mph N6.4 kmh N 4.0 mph6.4 kmh 30.04 in1017.3 mb 0.00 in0.0 mm 0.00 in0.0 mm 0.25 in6.4 mm
04:30 PM 37.6°F3.1°C 36.8°F2.7°C 97% 2.0 mph N3.2 kmh N 2.0 mph3.2 kmh 30.04 in1017.3 mb 0.00 in0.0 mm 0.00 in0.0 mm 0.25 in6.4 mm
04:20 PM 37.6°F3.1°C 36.8°F2.7°C 97% 2.0 mph N3.2 kmh N 3.0 mph4.8 kmh 30.04 in1017.3 mb 0.00 in0.0 mm 0.00 in0.0 mm 0.25 in6.4 mm
04:10 PM 37.8°F3.2°C 37.0°F2.8°C 97% 1.0 mph N1.6 kmh N 2.0 mph3.2 kmh 30.04 in1017.3 mb 0.00 in0.0 mm 0.00 in0.0 mm 0.25 in6.4 mm
04:00 PM 37.9°F3.3°C 37.1°F2.8°C 97% Calm Calm 2.0 mph3.2 kmh 30.05 in1017.6 mb 0.00 in0.0 mm 0.00 in0.0 mm 0.25 in6.4 mm
03:50 PM 38.0°F3.3°C 37.2°F2.9°C 97% 1.0 mph N1.6 kmh N 3.0 mph4.8 kmh 30.06 in1017.9 mb 0.00 in0.0 mm 0.00 in0.0 mm 0.25 in6.4 mm
03:40 PM 38.0°F3.3°C 37.2°F2.9°C 97% Calm Calm 2.0 mph3.2 kmh 30.06 in1017.9 mb 0.00 in0.0 mm 0.00 in0.0 mm 0.25 in6.4 mm
03:30 PM 37.9°F3.3°C 37.1°F2.8°C 97% 1.0 mph N1.6 kmh N 4.0 mph6.4 kmh 30.07 in1018.3 mb 0.00 in0.0 mm 0.00 in0.0 mm 0.25 in6.4 mm
03:20 PM 37.8°F3.2°C 37.0°F2.8°C 97% 1.0 mph N1.6 kmh N 3.0 mph4.8 kmh 30.07 in1018.3 mb 0.00 in0.0 mm 0.00 in0.0 mm 0.25 in6.4 mm
03:10 PM 37.9°F3.3°C 37.1°F2.8°C 97% 2.0 mph N3.2 kmh N 2.0 mph3.2 kmh 30.07 in1018.3 mb 0.00 in0.0 mm 0.00 in0.0 mm 0.25 in6.4 mm
03:00 PM 37.8°F3.2°C 37.0°F2.8°C 97% 2.0 mph N3.2 kmh N 2.0 mph3.2 kmh 30.07 in1018.3 mb 0.00 in0.0 mm 0.00 in0.0 mm 0.25 in6.4 mm
02:50 PM 37.5°F3.1°C 36.7°F2.6°C 97% Calm Calm -- 30.08 in1018.6 mb 0.00 in0.0 mm 0.00 in0.0 mm 0.25 in6.4 mm
02:40 PM 37.4°F3.0°C 36.6°F2.6°C 97% 1.0 mph N1.6 kmh N 3.0 mph4.8 kmh 30.09 in1019.0 mb 0.00 in0.0 mm 0.00 in0.0 mm 0.25 in6.4 mm
02:30 PM 37.4°F3.0°C 36.6°F2.6°C 97% Calm Calm 1.0 mph1.6 kmh 30.09 in1019.0 mb 0.01 in0.3 mm 0.00 in0.0 mm 0.25 in6.4 mm
02:20 PM 37.3°F2.9°C 36.5°F2.5°C 97% 2.0 mph NNE3.2 kmh NNE 3.0 mph4.8 kmh 30.09 in1019.0 mb 0.01 in0.3 mm 0.00 in0.0 mm 0.25 in6.4 mm
02:10 PM 37.1°F2.8°C 36.3°F2.4°C 97% 2.0 mph NNE3.2 kmh NNE 2.0 mph3.2 kmh 30.10 in1019.3 mb 0.02 in0.5 mm 0.00 in0.0 mm 0.25 in6.4 mm
02:00 PM 36.9°F2.7°C 36.1°F2.3°C 97% 2.0 mph NNE3.2 kmh NNE 2.0 mph3.2 kmh 30.10 in1019.3 mb 0.02 in0.5 mm 0.00 in0.0 mm 0.25 in6.4 mm
01:50 PM 36.8°F2.7°C 36.0°F2.2°C 97% Calm Calm 2.0 mph3.2 kmh 30.11 in1019.6 mb 0.03 in0.8 mm 0.00 in0.0 mm 0.25 in6.4 mm
01:40 PM 36.6°F2.6°C 35.8°F2.1°C 97% 1.0 mph NNE1.6 kmh NNE 2.0 mph3.2 kmh 30.11 in1019.6 mb 0.03 in0.8 mm 0.06 in1.5 mm 0.25 in6.4 mm
01:30 PM 36.4°F2.4°C 35.6°F2.0°C 97% 3.0 mph NNE4.8 kmh NNE 3.0 mph4.8 kmh 30.11 in1019.6 mb 0.02 in0.5 mm 0.00 in0.0 mm 0.24 in6.1 mm
01:20 PM 36.3°F2.4°C 35.5°F1.9°C 97% Calm Calm 1.0 mph1.6 kmh 30.12 in1020.0 mb 0.02 in0.5 mm 0.06 in1.5 mm 0.24 in6.1 mm
01:10 PM 36.3°F2.4°C 35.5°F1.9°C 97% Calm Calm 1.0 mph1.6 kmh 30.12 in1020.0 mb 0.01 in0.3 mm 0.00 in0.0 mm 0.23 in5.8 mm
01:00 PM 36.1°F2.3°C 35.3°F1.8°C 97% 2.0 mph NNE3.2 kmh NNE 2.0 mph3.2 kmh 30.12 in1020.0 mb 0.02 in0.5 mm 0.00 in0.0 mm 0.23 in5.8 mm
12:50 PM 35.8°F2.1°C 35.0°F1.7°C 97% 2.0 mph NNE3.2 kmh NNE 4.0 mph6.4 kmh 30.13 in1020.3 mb 0.03 in0.8 mm 0.00 in0.0 mm 0.23 in5.8 mm
12:40 PM 35.5°F1.9°C 34.7°F1.5°C 97% 1.0 mph NNE1.6 kmh NNE 3.0 mph4.8 kmh 30.13 in1020.3 mb 0.06 in1.5 mm 0.00 in0.0 mm 0.23 in5.8 mm
12:30 PM 35.2°F1.8°C 34.4°F1.3°C 97% 2.0 mph NNE3.2 kmh NNE 3.0 mph4.8 kmh 30.14 in1020.7 mb 0.08 in2.0 mm 0.00 in0.0 mm 0.23 in5.8 mm
12:20 PM 35.0°F1.7°C 34.2°F1.2°C 97% 3.0 mph NNE4.8 kmh NNE 4.0 mph6.4 kmh 30.14 in1020.7 mb 0.11 in2.8 mm 0.00 in0.0 mm 0.23 in5.8 mm
12:10 PM 34.7°F1.5°C 33.9°F1.1°C 97% 3.0 mph NE4.8 kmh NE 3.0 mph4.8 kmh 30.15 in1021.0 mb 0.14 in3.6 mm 0.00 in0.0 mm 0.23 in5.8 mm
12:00 PM 34.4°F1.3°C 33.6°F0.9°C 97% 2.0 mph NE3.2 kmh NE 3.0 mph4.8 kmh 30.15 in1021.0 mb 0.16 in4.1 mm 0.00 in0.0 mm 0.23 in5.8 mm
11:50 AM 34.3°F1.3°C 33.5°F0.8°C 97% 2.0 mph NE3.2 kmh NE 2.0 mph3.2 kmh 30.15 in1021.0 mb 0.18 in4.6 mm 0.00 in0.0 mm 0.23 in5.8 mm
11:40 AM 34.3°F1.3°C 33.5°F0.8°C 97% Calm Calm 1.0 mph1.6 kmh 30.16 in1021.3 mb 0.18 in4.6 mm 0.00 in0.0 mm 0.23 in5.8 mm
11:30 AM 34.3°F1.3°C 33.5°F0.8°C 97% Calm Calm -- 30.17 in1021.7 mb 0.18 in4.6 mm 0.00 in0.0 mm 0.23 in5.8 mm
11:20 AM 34.1°F1.2°C 33.3°F0.7°C 97% 1.0 mph NNE1.6 kmh NNE 2.0 mph3.2 kmh 30.19 in1022.4 mb 0.19 in4.8 mm 0.00 in0.0 mm 0.23 in5.8 mm
11:10 AM 34.0°F1.1°C 33.2°F0.7°C 97% 2.0 mph N3.2 kmh N 3.0 mph4.8 kmh 30.18 in1022.0 mb 0.20 in5.1 mm 0.12 in3.0 mm 0.23 in5.8 mm
11:00 AM 33.9°F1.1°C 33.1°F0.6°C 97% Calm Calm 1.0 mph1.6 kmh 30.19 in1022.4 mb 0.18 in4.6 mm 0.01 in0.3 mm 0.21 in5.3 mm
10:50 AM 33.7°F0.9°C 32.9°F0.5°C 97% Calm Calm 1.0 mph1.6 kmh 30.18 in1022.0 mb 0.17 in4.3 mm 0.00 in0.0 mm 0.20 in5.1 mm
10:40 AM 33.6°F0.9°C 32.8°F0.4°C 97% 1.0 mph E1.6 kmh E 2.0 mph3.2 kmh 30.19 in1022.4 mb 0.17 in4.3 mm 0.12 in3.0 mm 0.20 in5.1 mm
10:30 AM 33.5°F0.8°C 32.7°F0.4°C 97% Calm Calm -- 30.18 in1022.0 mb 0.15 in3.8 mm 0.18 in4.6 mm 0.18 in4.6 mm
10:20 AM 33.4°F0.8°C 32.6°F0.3°C 97% 2.0 mph NNE3.2 kmh NNE 2.0 mph3.2 kmh 30.19 in1022.4 mb 0.12 in3.0 mm 0.00 in0.0 mm 0.15 in3.8 mm
10:10 AM 33.3°F0.7°C 32.5°F0.3°C 97% 1.0 mph NNE1.6 kmh NNE 1.0 mph1.6 kmh 30.19 in1022.4 mb 0.12 in3.0 mm 0.00 in0.0 mm 0.15 in3.8 mm
10:00 AM 33.2°F0.7°C 32.4°F0.2°C 97% 1.0 mph NNE1.6 kmh NNE 2.0 mph3.2 kmh 30.20 in1022.7 mb 0.13 in3.3 mm 0.00 in0.0 mm 0.15 in3.8 mm
09:50 AM 33.0°F0.6°C 32.2°F0.1°C 97% 1.0 mph NNE1.6 kmh NNE 3.0 mph4.8 kmh 30.20 in1022.7 mb 0.13 in3.3 mm 0.00 in0.0 mm 0.15 in3.8 mm
09:40 AM 32.9°F0.5°C 32.1°F0.1°C 97% 3.0 mph NNE4.8 kmh NNE 4.0 mph6.4 kmh 30.21 in1023.0 mb 0.13 in3.3 mm 0.00 in0.0 mm 0.15 in3.8 mm
09:30 AM 32.7°F0.4°C 31.7°F-0.2°C 96% 2.0 mph NNE3.2 kmh NNE 3.0 mph4.8 kmh 30.21 in1023.0 mb 0.13 in3.3 mm 0.06 in1.5 mm 0.15 in3.8 mm
09:20 AM 32.6°F0.3°C 31.6°F-0.2°C 96% 4.0 mph NNE6.4 kmh NNE 4.0 mph6.4 kmh 30.21 in1023.0 mb 0.12 in3.0 mm 0.06 in1.5 mm 0.14 in3.6 mm
09:10 AM 32.6°F0.3°C 31.6°F-0.2°C 96% 1.0 mph NE1.6 kmh NE 2.0 mph3.2 kmh 30.21 in1023.0 mb 0.11 in2.8 mm 0.12 in3.0 mm 0.13 in3.3 mm
09:00 AM 32.5°F0.3°C 31.5°F-0.3°C 96% 1.0 mph NE1.6 kmh NE 2.0 mph3.2 kmh 30.22 in1023.4 mb 0.09 in2.3 mm 0.02 in0.5 mm 0.11 in2.8 mm
08:50 AM 32.4°F0.2°C 31.4°F-0.3°C 96% 2.0 mph NE3.2 kmh NE 2.0 mph3.2 kmh 30.23 in1023.7 mb 0.07 in1.8 mm 0.00 in0.0 mm 0.09 in2.3 mm
08:40 AM 32.4°F0.2°C 31.4°F-0.3°C 96% 1.0 mph NE1.6 kmh NE 2.0 mph3.2 kmh 30.23 in1023.7 mb 0.08 in2.0 mm 0.06 in1.5 mm 0.09 in2.3 mm
08:30 AM 32.3°F0.2°C 31.3°F-0.4°C 96% Calm Calm -- 30.23 in1023.7 mb 0.07 in1.8 mm 0.00 in0.0 mm 0.08 in2.0 mm
08:20 AM 32.2°F0.1°C 31.2°F-0.4°C 96% 2.0 mph NE3.2 kmh NE 2.0 mph3.2 kmh 30.24 in1024.0 mb 0.07 in1.8 mm 0.00 in0.0 mm 0.08 in2.0 mm
08:10 AM 32.1°F0.1°C 31.1°F-0.5°C 96% 2.0 mph NE3.2 kmh NE 2.0 mph3.2 kmh 30.24 in1024.0 mb 0.07 in1.8 mm 0.06 in1.5 mm 0.08 in2.0 mm
08:00 AM 32.1°F0.1°C 31.1°F-0.5°C 96% Calm Calm -- 30.24 in1024.0 mb 0.06 in1.5 mm 0.01 in0.3 mm 0.07 in1.8 mm
07:50 AM 32.0°F0.0°C 30.7°F-0.7°C 95% Calm Calm -- 30.24 in1024.0 mb 0.05 in1.3 mm 0.12 in3.0 mm 0.06 in1.5 mm
07:40 AM 31.9°F-0.1°C 30.6°F-0.8°C 95% Calm Calm -- 30.25 in1024.4 mb 0.03 in0.8 mm 0.00 in0.0 mm 0.04 in1.0 mm
07:30 AM 31.9°F-0.1°C 30.6°F-0.8°C 95% Calm Calm -- 30.25 in1024.4 mb 0.03 in0.8 mm 0.00 in0.0 mm 0.04 in1.0 mm
07:20 AM 31.9°F-0.1°C 30.6°F-0.8°C 95% Calm Calm -- 30.25 in1024.4 mb 0.03 in0.8 mm 0.06 in1.5 mm 0.04 in1.0 mm
07:10 AM 31.9°F-0.1°C 30.6°F-0.8°C 95% Calm Calm -- 30.26 in1024.7 mb 0.02 in0.5 mm 0.00 in0.0 mm 0.03 in0.8 mm
07:00 AM 31.9°F-0.1°C 30.6°F-0.8°C 95% Calm Calm -- 30.25 in1024.4 mb 0.03 in0.8 mm 0.00 in0.0 mm 0.03 in0.8 mm
06:50 AM 32.0°F0.0°C 30.5°F-0.8°C 94% Calm Calm -- 30.26 in1024.7 mb 0.03 in0.8 mm 0.00 in0.0 mm 0.03 in0.8 mm
06:40 AM 32.0°F0.0°C 30.5°F-0.8°C 94% Calm Calm -- 30.26 in1024.7 mb 0.03 in0.8 mm 0.06 in1.5 mm 0.03 in0.8 mm
06:30 AM 32.1°F0.1°C 30.6°F-0.8°C 94% Calm Calm -- 30.27 in1025.1 mb 0.02 in0.5 mm 0.06 in1.5 mm 0.02 in0.5 mm
06:20 AM 32.1°F0.1°C 30.6°F-0.8°C 94% Calm Calm -- 30.28 in1025.4 mb 0.01 in0.3 mm 0.00 in0.0 mm 0.01 in0.3 mm
06:10 AM 32.2°F0.1°C 30.4°F-0.9°C 93% Calm Calm -- 30.28 in1025.4 mb 0.01 in0.3 mm 0.06 in1.5 mm 0.01 in0.3 mm
06:00 AM 32.2°F0.1°C 30.4°F-0.9°C 93% Calm Calm -- 30.28 in1025.4 mb 0.00 in0.0 mm 0.00 in0.0 mm 0.00 in0.0 mm
05:50 AM 32.2°F0.1°C 30.1°F-1.1°C 92% Calm Calm -- 30.29 in1025.7 mb 0.00 in0.0 mm 0.00 in0.0 mm 0.00 in0.0 mm
05:40 AM 32.2°F0.1°C 30.1°F-1.1°C 92% Calm Calm -- 30.28 in1025.4 mb 0.00 in0.0 mm 0.00 in0.0 mm 0.00 in0.0 mm
05:30 AM 32.1°F0.1°C 30.0°F-1.1°C 92% Calm Calm -- 30.29 in1025.7 mb 0.00 in0.0 mm 0.00 in0.0 mm 0.00 in0.0 mm
05:20 AM 32.0°F0.0°C 29.9°F-1.2°C 92% Calm Calm -- 30.29 in1025.7 mb 0.00 in0.0 mm 0.00 in0.0 mm 0.00 in0.0 mm
05:10 AM 31.9°F-0.1°C 29.8°F-1.2°C 92% Calm Calm -- 30.29 in1025.7 mb 0.00 in0.0 mm 0.00 in0.0 mm 0.00 in0.0 mm
05:00 AM 31.7°F-0.2°C 29.7°F-1.3°C 92% Calm Calm 1.0 mph1.6 kmh 30.29 in1025.7 mb 0.00 in0.0 mm 0.00 in0.0 mm 0.00 in0.0 mm
04:50 AM 31.5°F-0.3°C 29.7°F-1.3°C 93% Calm Calm -- 30.29 in1025.7 mb 0.00 in0.0 mm 0.00 in0.0 mm 0.00 in0.0 mm
04:40 AM 31.3°F-0.4°C 29.5°F-1.4°C 93% Calm Calm 2.0 mph3.2 kmh 30.30 in1026.1 mb 0.00 in0.0 mm 0.00 in0.0 mm 0.00 in0.0 mm
04:30 AM 31.1°F-0.5°C 29.3°F-1.5°C 93% Calm Calm 1.0 mph1.6 kmh 30.30 in1026.1 mb 0.00 in0.0 mm 0.00 in0.0 mm 0.00 in0.0 mm
04:20 AM 31.1°F-0.5°C 29.3°F-1.5°C 93% Calm Calm -- 30.30 in1026.1 mb 0.00 in0.0 mm 0.00 in0.0 mm 0.00 in0.0 mm
04:10 AM 31.0°F-0.6°C 29.2°F-1.6°C 93% Calm Calm -- 30.31 in1026.4 mb 0.00 in0.0 mm 0.00 in0.0 mm 0.00 in0.0 mm
04:00 AM 31.0°F-0.6°C 29.0°F-1.7°C 92% Calm Calm -- 30.32 in1026.8 mb 0.00 in0.0 mm 0.00 in0.0 mm 0.00 in0.0 mm
03:50 AM 31.0°F-0.6°C 29.0°F-1.7°C 92% Calm Calm -- 30.32 in1026.8 mb 0.00 in0.0 mm 0.00 in0.0 mm 0.00 in0.0 mm
03:40 AM 31.0°F-0.6°C 29.0°F-1.7°C 92% Calm Calm -- 30.32 in1026.8 mb 0.00 in0.0 mm 0.00 in0.0 mm 0.00 in0.0 mm
03:30 AM 31.0°F-0.6°C 29.0°F-1.7°C 92% Calm Calm -- 30.32 in1026.8 mb 0.00 in0.0 mm 0.00 in0.0 mm 0.00 in0.0 mm
03:20 AM 31.0°F-0.6°C 29.0°F-1.7°C 92% Calm Calm -- 30.33 in1027.1 mb 0.00 in0.0 mm 0.00 in0.0 mm 0.00 in0.0 mm
03:10 AM 31.1°F-0.5°C 29.3°F-1.5°C 93% Calm Calm -- 30.33 in1027.1 mb 0.00 in0.0 mm 0.00 in0.0 mm 0.00 in0.0 mm
03:00 AM 31.1°F-0.5°C 29.3°F-1.5°C 93% Calm Calm -- 30.34 in1027.4 mb 0.00 in0.0 mm 0.00 in0.0 mm 0.00 in0.0 mm
02:50 AM 31.1°F-0.5°C 29.1°F-1.6°C 92% Calm Calm -- 30.34 in1027.4 mb 0.00 in0.0 mm 0.00 in0.0 mm 0.00 in0.0 mm
02:40 AM 31.0°F-0.6°C 29.0°F-1.7°C 92% Calm Calm -- 30.35 in1027.8 mb 0.00 in0.0 mm 0.00 in0.0 mm 0.00 in0.0 mm
02:30 AM 31.0°F-0.6°C 29.0°F-1.7°C 92% Calm Calm -- 30.35 in1027.8 mb 0.00 in0.0 mm 0.00 in0.0 mm 0.00 in0.0 mm
02:20 AM 31.0°F-0.6°C 29.0°F-1.7°C 92% Calm Calm -- 30.35 in1027.8 mb 0.00 in0.0 mm 0.00 in0.0 mm 0.00 in0.0 mm
02:10 AM 31.0°F-0.6°C 29.0°F-1.7°C 92% Calm Calm -- 30.35 in1027.8 mb 0.00 in0.0 mm 0.00 in0.0 mm 0.00 in0.0 mm
02:00 AM 30.9°F-0.6°C 28.9°F-1.7°C 92% Calm Calm -- 30.36 in1028.1 mb 0.00 in0.0 mm 0.00 in0.0 mm 0.00 in0.0 mm
01:50 AM 31.0°F-0.6°C 29.0°F-1.7°C 92% Calm Calm -- 30.37 in1028.4 mb 0.00 in0.0 mm 0.00 in0.0 mm 0.00 in0.0 mm
01:40 AM 31.0°F-0.6°C 29.0°F-1.7°C 92% Calm Calm -- 30.37 in1028.4 mb 0.00 in0.0 mm 0.00 in0.0 mm 0.00 in0.0 mm
01:30 AM 31.0°F-0.6°C 29.0°F-1.7°C 92% Calm Calm -- 30.37 in1028.4 mb 0.00 in0.0 mm 0.00 in0.0 mm 0.00 in0.0 mm
01:20 AM 31.0°F-0.6°C 29.0°F-1.7°C 92% Calm Calm -- 30.37 in1028.4 mb 0.00 in0.0 mm 0.00 in0.0 mm 0.00 in0.0 mm
01:10 AM 31.0°F-0.6°C 29.0°F-1.7°C 92% Calm Calm -- 30.38 in1028.8 mb 0.00 in0.0 mm 0.00 in0.0 mm 0.00 in0.0 mm
01:00 AM 30.9°F-0.6°C 28.9°F-1.7°C 92% Calm Calm -- 30.38 in1028.8 mb 0.00 in0.0 mm 0.00 in0.0 mm 0.00 in0.0 mm
12:50 AM 30.9°F-0.6°C 28.9°F-1.7°C 92% Calm Calm -- 30.38 in1028.8 mb 0.00 in0.0 mm 0.00 in0.0 mm 0.00 in0.0 mm
12:40 AM 30.9°F-0.6°C 28.9°F-1.7°C 92% Calm Calm -- 30.39 in1029.1 mb 0.00 in0.0 mm 0.00 in0.0 mm 0.00 in0.0 mm
12:30 AM 31.0°F-0.6°C 29.0°F-1.7°C 92% Calm Calm -- 30.40 in1029.5 mb 0.00 in0.0 mm 0.00 in0.0 mm 0.00 in0.0 mm
12:20 AM 31.0°F-0.6°C 28.7°F-1.8°C 91% Calm Calm -- 30.40 in1029.5 mb 0.00 in0.0 mm 0.00 in0.0 mm 0.00 in0.0 mm
12:10 AM 31.0°F-0.6°C 28.7°F-1.8°C 91% Calm Calm -- 30.41 in1029.8 mb 0.00 in0.0 mm 0.00 in0.0 mm 0.00 in0.0 mm
12:00 AM 31.0°F-0.6°C 28.7°F-1.8°C 91% Calm Calm -- 30.41 in1029.8 mb 0.00 in0.0 mm 0.00 in0.0 mm 0.00 in0.0 mm